TAF KMSL
KMSL 081720Z 0818/0918 36005KT P6SM SKC FM090000 10003KT P6SM SCT250 FM091500 15008G18KT P6SM BKN250=
METAR KMSL
WC KMSL
WS KMSL
WV KMSL